Erie International Tom Ridge Field Erie US
ICAO: KERI
IATA: ERI
Category: Large
Scheduled Services: Yes

Elevation: 732 ft
TransAlt. 18000 ft.

Airport Communications:
APP/DEP:121
ATIS:120.35
CLNC DEL:126.8
CTAF:118.1
GND:121.9
ALTOONA RDO:109.4
TWR:118.1
UNICOM:122.95

KERI Zoom In..

Runways:

(A) RW 02 length 3508 ft width 150 ft
---- / hdg 20

(B) RW 06 length 8420 ft width 150 ft
ILS 110.30 / hdg 64

(C) RW 20 length 3508 ft width 150 ft
---- / hdg 200

(D) RW 24 length 8420 ft width 150 ft
ILS 110.30 / hdg 244

Location; KERI
Day. 26 / Time. 03.51 Zulu
* Altimeter: 29.84
* Temperature: 18° c. 64.4°f.
* Wind from: 200° Speed 03 kn.
Dewpoint: 11° c.
Visibility: 10 Statute Miles.
Clouds: Clear (automated report).

KERI 260351Z 20003KT 10SM CLR 18/11 A2984 RMK AO2 SLP099 T01830111


Wind From 200°
Speed 03 kn.

 
 
jpsmedia.com for Web Design SOUNDCLOUD worldairports.se 2018   terms of use